Time;durP1;ratioP1;P1;durP2;ratioP2;P2;SDS_P1;SDS_P2;PMS_P1;PMS_P2;Temp;Humidity;BMP_temperature;BMP_pressure;BME280_temperature;BME280_humidity;BME280_pressure;Samples;Min_cycle;Max_cycle;Signal;HPM_P1;HPM_P2
2023/04/17 00:01:39;;;;;;;45.58;19.38;;;8.00;1.00;;;;;;5056214;28;20067;-82
2023/04/17 00:04:09;;;;;;;45.15;19.33;;;8.00;1.00;;;;;;5056143;28;20110;-82
2023/04/17 00:06:36;;;;;;;40.08;18.65;;;8.00;1.00;;;;;;5055927;28;20048;-82
2023/04/17 00:09:02;;;;;;;45.47;19.27;;;8.10;1.00;;;;;;5052632;28;20491;-82
2023/04/17 00:11:28;;;;;;;44.88;20.05;;;8.00;1.00;;;;;;5051176;28;20036;-82
2023/04/17 00:13:54;;;;;;;43.80;19.00;;;8.00;1.00;;;;;;5059988;28;20046;-82
2023/04/17 00:16:19;;;;;;;42.45;18.92;;;8.10;1.00;;;;;;5054658;28;20052;-82
2023/04/17 00:18:45;;;;;;;44.65;19.48;;;8.00;1.00;;;;;;5055845;28;20063;-82
2023/04/17 00:21:11;;;;;;;44.55;19.17;;;8.10;1.00;;;;;;5067522;28;20036;-82
2023/04/17 00:23:36;;;;;;;48.38;19.50;;;8.00;1.00;;;;;;5034201;28;20036;-84
2023/04/17 00:26:02;;;;;;;45.75;19.48;;;8.00;1.00;;;;;;5053003;28;20130;-82
2023/04/17 00:28:28;;;;;;;43.83;19.15;;;8.00;1.00;;;;;;5062410;28;20134;-82
2023/04/17 00:30:54;;;;;;;46.15;19.30;;;8.00;1.00;;;;;;5065190;28;20058;-82
2023/04/17 00:33:19;;;;;;;47.53;20.33;;;8.00;1.00;;;;;;5061398;28;20065;-84
2023/04/17 00:35:45;;;;;;;47.83;19.42;;;8.00;1.00;;;;;;5085625;28;20052;-82
2023/04/17 00:38:11;;;;;;;52.33;20.77;;;8.00;1.00;;;;;;5078836;28;20048;-83
2023/04/17 00:40:36;;;;;;;48.78;20.73;;;8.00;1.00;;;;;;5045315;28;20155;-82
2023/04/17 00:43:03;;;;;;;46.13;19.13;;;8.10;1.00;;;;;;5060429;28;20050;-82
2023/04/17 00:45:30;;;;;;;53.92;20.85;;;8.10;1.00;;;;;;5053532;28;20055;-82
2023/04/17 00:48:00;;;;;;;48.60;20.08;;;8.00;1.00;;;;;;5057108;28;20052;-82
2023/04/17 00:50:27;;;;;;;47.20;20.38;;;8.10;1.00;;;;;;5059446;28;20048;-82
2023/04/17 00:52:53;;;;;;;53.92;21.58;;;8.10;1.00;;;;;;5072360;28;20044;-82
2023/04/17 00:55:20;;;;;;;57.35;21.45;;;8.10;1.00;;;;;;5063463;28;20078;-85
2023/04/17 00:57:48;;;;;;;54.72;22.02;;;8.10;1.00;;;;;;5060627;28;20044;-81
2023/04/17 01:00:15;;;;;;;51.03;20.08;;;8.10;1.00;;;;;;5036493;28;20043;-81
2023/04/17 01:02:41;;;;;;;47.67;21.17;;;8.10;1.00;;;;;;5037387;28;20047;-82
2023/04/17 01:05:07;;;;;;;51.55;21.58;;;8.10;1.00;;;;;;5059706;28;20032;-81
2023/04/17 01:07:33;;;;;;;50.83;21.95;;;8.20;1.00;;;;;;5061890;28;20127;-81
2023/04/17 01:09:59;;;;;;;48.30;20.70;;;8.10;1.00;;;;;;5040871;28;20159;-81
2023/04/17 01:12:25;;;;;;;53.03;22.05;;;8.10;1.00;;;;;;5050759;28;20108;-82
2023/04/17 01:14:55;;;;;;;51.75;21.05;;;8.20;1.00;;;;;;5059515;28;20113;-83
2023/04/17 01:17:22;;;;;;;51.50;22.48;;;8.20;1.00;;;;;;5062901;28;20055;-82
2023/04/17 01:19:48;;;;;;;51.08;20.88;;;8.20;1.00;;;;;;5068324;28;20658;-82
2023/04/17 01:22:15;;;;;;;49.30;20.90;;;8.20;1.00;;;;;;5055512;28;20036;-82
2023/04/17 01:24:41;;;;;;;51.42;21.08;;;8.20;1.00;;;;;;5085042;28;20082;-82
2023/04/17 01:27:07;;;;;;;53.95;22.05;;;8.20;1.00;;;;;;5060259;28;20049;-82
2023/04/17 01:29:33;;;;;;;55.88;22.80;;;8.20;1.00;;;;;;5068722;28;20044;-82
2023/04/17 01:31:59;;;;;;;51.55;21.55;;;8.20;1.00;;;;;;5055684;28;20040;-84
2023/04/17 01:34:26;;;;;;;52.00;21.33;;;8.10;1.00;;;;;;5047848;28;20084;-85
2023/04/17 01:36:51;;;;;;;58.70;21.88;;;8.20;1.00;;;;;;5073099;28;20052;-82
2023/04/17 01:39:17;;;;;;;52.25;21.45;;;8.20;1.00;;;;;;5058933;28;20055;-84
2023/04/17 01:41:43;;;;;;;53.85;22.48;;;8.20;1.00;;;;;;5070103;28;20040;-82
2023/04/17 01:44:09;;;;;;;51.95;21.63;;;8.20;1.00;;;;;;5058900;28;20051;-82
2023/04/17 01:46:34;;;;;;;54.58;22.50;;;8.20;1.00;;;;;;5035060;28;20048;-82
2023/04/17 01:49:00;;;;;;;54.78;24.30;;;8.20;1.00;;;;;;5026706;28;20040;-82
2023/04/17 01:51:26;;;;;;;57.40;23.33;;;8.20;1.00;;;;;;5053953;28;20473;-82
2023/04/17 01:53:52;;;;;;;64.63;24.92;;;8.20;1.00;;;;;;5070214;28;20051;-82
2023/04/17 01:56:18;;;;;;;58.17;22.90;;;8.20;1.00;;;;;;5037367;28;20051;-82
2023/04/17 01:58:44;;;;;;;58.20;23.58;;;8.20;1.00;;;;;;5085390;28;20129;-82
2023/04/17 02:01:10;;;;;;;53.88;24.00;;;8.10;1.00;;;;;;5056321;28;20102;-83
2023/04/17 02:03:35;;;;;;;54.15;22.80;;;8.20;1.00;;;;;;5071566;28;20229;-83
2023/04/17 02:06:01;;;;;;;59.15;24.17;;;8.20;1.00;;;;;;5061861;28;20040;-82
2023/04/17 02:08:28;;;;;;;59.70;24.27;;;8.20;1.00;;;;;;5042568;28;20075;-82
2023/04/17 02:10:54;;;;;;;55.28;22.63;;;8.20;1.00;;;;;;5055936;28;20051;-82
2023/04/17 02:13:20;;;;;;;55.97;22.65;;;8.20;1.00;;;;;;5053792;28;20072;-82
2023/04/17 02:15:46;;;;;;;58.58;22.95;;;8.20;1.00;;;;;;5072602;28;20439;-81
2023/04/17 02:18:11;;;;;;;68.00;25.10;;;8.10;1.00;;;;;;5041264;28;20043;-82
2023/04/17 02:20:37;;;;;;;57.33;23.63;;;8.20;1.00;;;;;;5070612;28;20043;-83
2023/04/17 02:23:04;;;;;;;58.22;22.95;;;8.20;1.00;;;;;;5025540;28;20078;-82
2023/04/17 02:25:31;;;;;;;62.78;23.83;;;8.10;1.00;;;;;;5053949;28;20056;-82
2023/04/17 02:27:57;;;;;;;59.10;23.08;;;8.10;1.00;;;;;;5059673;28;20047;-83
2023/04/17 02:30:26;;;;;;;53.38;24.33;;;8.10;1.00;;;;;;5052104;28;20047;-82
2023/04/17 02:32:53;;;;;;;59.88;24.17;;;8.10;1.00;;;;;;5073021;28;20072;-82
2023/04/17 02:35:24;;;;;;;56.97;22.98;;;8.10;1.00;;;;;;5074352;28;20435;-82
2023/04/17 02:37:50;;;;;;;55.30;22.77;;;8.10;1.00;;;;;;5075362;28;20703;-82
2023/04/17 02:40:16;;;;;;;63.00;22.88;;;8.10;1.00;;;;;;5045742;28;20048;-83
2023/04/17 02:42:42;;;;;;;60.78;22.42;;;8.10;1.00;;;;;;5059073;28;20035;-82
2023/04/17 02:45:09;;;;;;;65.05;24.20;;;8.10;1.00;;;;;;5054708;28;20053;-81
2023/04/17 02:47:35;;;;;;;63.33;23.10;;;8.10;1.00;;;;;;5063400;28;20130;-85
2023/04/17 02:50:01;;;;;;;59.70;22.98;;;8.10;1.00;;;;;;5054017;28;20136;-82
2023/04/17 02:52:27;;;;;;;58.53;22.60;;;8.10;1.00;;;;;;5061215;28;20048;-83
2023/04/17 02:54:53;;;;;;;65.38;24.10;;;8.10;1.00;;;;;;5079338;28;20101;-82
2023/04/17 02:57:19;;;;;;;70.70;25.33;;;8.00;1.00;;;;;;5050991;28;21271;-82
2023/04/17 02:59:45;;;;;;;69.53;23.73;;;8.00;1.00;;;;;;5045200;28;20048;-84
2023/04/17 03:02:13;;;;;;;59.30;22.83;;;8.00;1.00;;;;;;5036786;28;20070;-82
2023/04/17 03:04:39;;;;;;;61.53;23.48;;;8.10;1.00;;;;;;5054931;28;20052;-85
2023/04/17 03:07:05;;;;;;;62.03;23.00;;;8.00;1.00;;;;;;5059473;28;20044;-83
2023/04/17 03:09:32;;;;;;;70.97;24.45;;;8.00;1.00;;;;;;5066618;28;20129;-81
2023/04/17 03:11:58;;;;;;;65.85;22.40;;;8.00;1.00;;;;;;5046325;28;20059;-81
2023/04/17 03:14:24;;;;;;;65.40;23.52;;;8.00;1.00;;;;;;5042333;28;20051;-81
2023/04/17 03:16:50;;;;;;;70.25;25.98;;;8.00;1.00;;;;;;5062131;28;20155;-82
2023/04/17 03:19:15;;;;;;;62.13;23.42;;;8.00;1.00;;;;;;5094751;28;20493;-82
2023/04/17 03:21:41;;;;;;;72.28;24.25;;;8.00;1.00;;;;;;5052579;28;20039;-85
2023/04/17 03:24:10;;;;;;;67.07;23.05;;;8.00;1.00;;;;;;5051646;28;20049;-82
2023/04/17 03:26:35;;;;;;;64.40;23.35;;;8.00;1.00;;;;;;5040699;28;20181;-82
2023/04/17 03:29:01;;;;;;;72.60;23.90;;;8.00;1.00;;;;;;5033643;28;20534;-82
2023/04/17 03:31:27;;;;;;;63.88;24.13;;;8.00;1.00;;;;;;5035443;28;20078;-83
2023/04/17 03:33:52;;;;;;;63.53;22.95;;;8.00;1.00;;;;;;5051168;28;20115;-82
2023/04/17 03:36:18;;;;;;;71.07;24.77;;;8.00;1.00;;;;;;5082911;28;20052;-82
2023/04/17 03:38:44;;;;;;;63.10;23.38;;;8.00;1.00;;;;;;5053575;28;20044;-82
2023/04/17 03:41:10;;;;;;;55.05;21.70;;;8.00;1.00;;;;;;5039763;28;20047;-82
2023/04/17 03:43:35;;;;;;;59.83;22.60;;;8.00;1.00;;;;;;5058494;28;20064;-82
2023/04/17 03:46:01;;;;;;;61.88;22.83;;;8.00;1.20;;;;;;5066843;28;20123;-82
2023/04/17 03:48:27;;;;;;;57.65;22.15;;;8.00;6.20;;;;;;5072961;28;20035;-84
2023/04/17 03:50:52;;;;;;;63.00;22.60;;;8.00;8.30;;;;;;5073257;28;20501;-82
2023/04/17 03:53:18;;;;;;;56.95;22.05;;;7.90;10.30;;;;;;5087549;28;20394;-82
2023/04/17 03:55:44;;;;;;;58.65;21.10;;;7.90;5.10;;;;;;5044849;28;20521;-85
2023/04/17 03:58:10;;;;;;;57.78;21.45;;;7.90;9.40;;;;;;5066515;28;20405;-82
2023/04/17 04:00:36;;;;;;;53.33;20.58;;;7.90;6.90;;;;;;5086606;28;20097;-82
2023/04/17 04:03:03;;;;;;;57.40;22.45;;;7.90;6.50;;;;;;5064478;28;20051;-82
2023/04/17 04:05:28;;;;;;;55.97;20.63;;;7.90;3.00;;;;;;5048238;28;20355;-82
2023/04/17 04:07:55;;;;;;;58.28;21.55;;;7.90;2.20;;;;;;5050220;28;20094;-81
2023/04/17 04:10:21;;;;;;;60.22;21.63;;;8.00;1.00;;;;;;5072007;28;20067;-82
2023/04/17 04:12:47;;;;;;;60.28;22.25;;;7.90;3.20;;;;;;5056298;28;20048;-84
2023/04/17 04:15:12;;;;;;;56.22;23.05;;;7.90;1.00;;;;;;5057742;28;20051;-81
2023/04/17 04:17:38;;;;;;;63.08;22.17;;;7.90;14.10;;;;;;5068491;28;20504;-81
2023/04/17 04:20:07;;;;;;;54.72;20.80;;;7.90;7.70;;;;;;5074704;28;20397;-81
2023/04/17 04:22:33;;;;;;;54.30;21.48;;;7.90;3.20;;;;;;5058760;28;20144;-81
2023/04/17 04:24:59;;;;;;;49.92;19.75;;;7.90;1.00;;;;;;5063088;28;20051;-82
2023/04/17 04:27:26;;;;;;;53.95;21.77;;;7.90;1.00;;;;;;5058174;28;20051;-81
2023/04/17 04:29:57;;;;;;;51.00;21.00;;;7.80;1.00;;;;;;5066639;28;20055;-82
2023/04/17 04:32:24;;;;;;;52.75;20.88;;;7.90;1.30;;;;;;5038793;28;20105;-82
2023/04/17 04:34:50;;;;;;;51.38;21.60;;;7.90;1.00;;;;;;5049725;28;20067;-84
2023/04/17 04:37:20;;;;;;;54.83;22.10;;;7.90;13.30;;;;;;5052800;28;20056;-82
2023/04/17 04:39:52;;;;;;;52.63;22.30;;;7.90;9.10;;;;;;5076868;28;20503;-82
2023/04/17 04:42:21;;;;;;;51.47;21.45;;;7.80;16.10;;;;;;5064767;28;20520;-84
2023/04/17 04:44:46;;;;;;;52.05;19.25;;;7.80;19.40;;;;;;5068972;28;20052;-81
2023/04/17 04:47:12;;;;;;;51.83;20.02;;;7.80;22.30;;;;;;5065377;28;20048;-83
2023/04/17 04:49:38;;;;;;;57.92;20.55;;;7.70;23.30;;;;;;5056654;28;20079;-84
2023/04/17 04:52:04;;;;;;;50.15;20.88;;;7.70;19.50;;;;;;5068871;28;20055;-84
2023/04/17 04:54:29;;;;;;;51.42;20.17;;;7.70;18.90;;;;;;5069400;28;20076;-83
2023/04/17 04:56:55;;;;;;;47.75;19.45;;;7.70;19.00;;;;;;5065288;28;20048;-84
2023/04/17 04:59:21;;;;;;;50.47;20.73;;;7.80;14.30;;;;;;5049848;28;20498;-83
2023/04/17 05:01:47;;;;;;;50.30;19.77;;;7.80;13.00;;;;;;5067534;28;20094;-83
2023/04/17 05:04:12;;;;;;;50.65;20.73;;;7.80;14.00;;;;;;5048532;28;20052;-84
2023/04/17 05:06:38;;;;;;;44.38;19.77;;;7.80;13.20;;;;;;5035185;28;20136;-85
2023/04/17 05:09:04;;;;;;;47.33;20.48;;;7.80;18.10;;;;;;5046348;28;20051;-82
2023/04/17 05:11:31;;;;;;;52.60;20.33;;;7.80;16.30;;;;;;5036847;28;20074;-80
2023/04/17 05:13:56;;;;;;;45.78;18.45;;;7.80;13.60;;;;;;5076146;28;20040;-82
2023/04/17 05:16:22;;;;;;;45.78;18.83;;;7.80;13.20;;;;;;5035849;28;20123;-83
2023/04/17 05:18:48;;;;;;;45.88;19.00;;;7.70;13.70;;;;;;5021014;28;20047;-82
2023/04/17 05:21:13;;;;;;;49.72;18.58;;;7.80;13.30;;;;;;5063824;28;20036;-81
2023/04/17 05:23:39;;;;;;;46.92;19.63;;;7.80;18.50;;;;;;5049073;28;20037;-83
2023/04/17 05:26:05;;;;;;;47.08;18.27;;;8.00;13.60;;;;;;5052655;28;20224;-85
2023/04/17 05:28:31;;;;;;;49.25;18.35;;;7.70;19.80;;;;;;5054190;28;20062;-84
2023/04/17 05:30:56;;;;;;;45.72;18.17;;;7.70;22.10;;;;;;5041493;28;20040;-83
2023/04/17 05:33:22;;;;;;;50.83;19.58;;;7.70;17.00;;;;;;5078467;28;20450;-81
2023/04/17 05:35:48;;;;;;;46.30;18.45;;;7.70;14.30;;;;;;5046036;28;20055;-81
2023/04/17 05:38:14;;;;;;;45.38;18.27;;;7.70;13.40;;;;;;5079298;28;20115;-81
2023/04/17 05:40:39;;;;;;;43.83;18.15;;;7.80;13.30;;;;;;5079610;28;20051;-82
2023/04/17 05:43:09;;;;;;;51.97;19.58;;;7.80;15.00;;;;;;5078335;28;20048;-82
2023/04/17 05:45:35;;;;;;;40.35;17.90;;;7.80;14.60;;;;;;5078501;28;20101;-82
2023/04/17 05:48:01;;;;;;;43.20;18.20;;;7.70;17.40;;;;;;5079405;28;20436;-84
2023/04/17 05:50:26;;;;;;;41.22;18.15;;;7.80;18.60;;;;;;5064274;28;20415;-81
2023/04/17 05:52:52;;;;;;;45.92;17.98;;;7.80;16.50;;;;;;5035303;28;20040;-82
2023/04/17 05:55:20;;;;;;;46.63;18.60;;;7.80;11.70;;;;;;5060310;28;20437;-81
2023/04/17 05:57:46;;;;;;;44.65;17.85;;;7.90;14.60;;;;;;5035301;28;20098;-82
2023/04/17 06:00:12;;;;;;;47.88;19.27;;;7.90;8.20;;;;;;5072038;28;20044;-82
2023/04/17 06:02:39;;;;;;;42.75;18.10;;;7.90;15.60;;;;;;5069411;28;20044;-82
2023/04/17 06:05:06;;;;;;;46.08;19.27;;;7.90;21.10;;;;;;5061721;28;20392;-80
2023/04/17 06:07:32;;;;;;;47.47;20.70;;;7.90;18.30;;;;;;5044614;28;20041;-80
2023/04/17 06:09:58;;;;;;;53.30;19.27;;;8.00;18.40;;;;;;5054082;28;20715;-80
2023/04/17 06:12:24;;;;;;;48.05;19.95;;;8.00;13.10;;;;;;5045615;28;20040;-81
2023/04/17 06:14:49;;;;;;;55.67;21.42;;;8.10;13.30;;;;;;5079375;28;20044;-80
2023/04/17 06:17:15;;;;;;;49.78;20.70;;;8.10;9.70;;;;;;5059502;28;20060;-83
2023/04/17 06:19:41;;;;;;;52.90;22.00;;;8.20;10.40;;;;;;5068646;28;20509;-80
2023/04/17 06:22:06;;;;;;;54.10;21.13;;;8.30;5.80;;;;;;5052435;28;20040;-81
2023/04/17 06:24:32;;;;;;;55.92;22.73;;;8.30;4.90;;;;;;5072800;28;20047;-80
2023/04/17 06:26:58;;;;;;;56.90;22.95;;;8.40;1.00;;;;;;5077153;28;20414;-80
2023/04/17 06:29:23;;;;;;;56.38;22.35;;;8.50;1.00;;;;;;5059543;28;20082;-81
2023/04/17 06:31:49;;;;;;;53.92;22.67;;;8.60;1.00;;;;;;5059378;28;20050;-84
2023/04/17 06:34:15;;;;;;;51.47;22.02;;;8.70;1.00;;;;;;5074740;28;20057;-80
2023/04/17 06:36:40;;;;;;;48.17;22.05;;;8.70;1.00;;;;;;5051548;28;20052;-80
2023/04/17 06:39:06;;;;;;;49.30;22.30;;;8.70;1.00;;;;;;5071673;28;20553;-85
2023/04/17 06:41:32;;;;;;;48.30;21.42;;;8.70;1.00;;;;;;5075916;28;20055;-81
2023/04/17 06:43:57;;;;;;;48.25;21.27;;;8.70;1.00;;;;;;5060089;28;20138;-81
2023/04/17 06:46:23;;;;;;;48.55;22.50;;;8.80;1.00;;;;;;5063775;28;20047;-81
2023/04/17 06:48:51;;;;;;;46.78;22.38;;;8.80;1.00;;;;;;5051606;28;20037;-81
2023/04/17 06:51:19;;;;;;;48.40;21.60;;;8.80;1.00;;;;;;5076937;28;20047;-80
2023/04/17 06:53:48;;;;;;;44.00;20.50;;;8.90;1.00;;;;;;5063432;28;20205;-81
2023/04/17 06:56:14;;;;;;;49.58;21.80;;;8.90;1.00;;;;;;5049476;28;20485;-81
2023/04/17 06:58:42;;;;;;;47.42;21.02;;;9.00;1.00;;;;;;5070063;28;20090;-80
2023/04/17 07:01:12;;;;;;;44.75;21.13;;;9.00;1.00;;;;;;5050426;28;20478;-81
2023/04/17 07:03:38;;;;;;;46.65;21.10;;;9.10;1.00;;;;;;5060039;28;20098;-81
2023/04/17 07:06:04;;;;;;;41.75;20.88;;;9.20;1.00;;;;;;5076247;28;20051;-80
2023/04/17 07:08:30;;;;;;;50.47;22.70;;;9.30;1.00;;;;;;5059295;28;20051;-81
2023/04/17 07:10:56;;;;;;;49.40;22.15;;;9.30;1.00;;;;;;5056766;28;20047;-81
2023/04/17 07:13:22;;;;;;;46.65;22.33;;;9.40;1.00;;;;;;5053828;28;20072;-81
2023/04/17 07:15:55;;;;;;;47.08;21.90;;;9.50;1.00;;;;;;5051747;28;20401;-81
2023/04/17 07:18:21;;;;;;;44.35;22.60;;;9.50;1.00;;;;;;5075549;28;20056;-81
2023/04/17 07:20:47;;;;;;;47.42;23.15;;;9.60;1.00;;;;;;5065907;28;20032;-84
2023/04/17 07:23:13;;;;;;;45.92;23.63;;;9.70;1.00;;;;;;5055694;28;20052;-87
2023/04/17 07:25:39;;;;;;;45.00;22.33;;;9.90;1.00;;;;;;5052273;28;20078;-81
2023/04/17 07:28:05;;;;;;;45.65;22.23;;;10.10;1.00;;;;;;5059150;28;20052;-80
2023/04/17 07:30:31;;;;;;;43.40;21.40;;;10.30;1.00;;;;;;5076639;28;20063;-82
2023/04/17 07:32:57;;;;;;;45.95;24.27;;;10.50;1.00;;;;;;5073188;28;20113;-82
2023/04/17 07:35:23;;;;;;;46.70;22.85;;;10.50;1.00;;;;;;5055359;28;20363;-83
2023/04/17 07:37:48;;;;;;;44.60;22.63;;;10.60;1.00;;;;;;5087583;28;20127;-81
2023/04/17 07:40:18;;;;;;;43.60;21.90;;;10.70;1.00;;;;;;5059205;28;20533;-86
2023/04/17 07:42:44;;;;;;;44.05;22.00;;;10.70;99.90;;;;;;5075258;28;20044;-80
2023/04/17 07:45:10;;;;;;;46.30;22.50;;;10.70;1.00;;;;;;5058559;28;20143;-81
2023/04/17 07:47:36;;;;;;;38.45;21.10;;;10.80;1.00;;;;;;5058176;28;20043;-81
2023/04/17 07:50:02;;;;;;;41.78;21.65;;;10.80;99.90;;;;;;5058825;28;20044;-81
2023/04/17 07:52:28;;;;;;;38.47;20.95;;;10.90;99.90;;;;;;5069209;28;20044;-82
2023/04/17 07:54:55;;;;;;;43.60;22.23;;;11.00;99.90;;;;;;5047697;28;20048;-87
2023/04/17 07:57:21;;;;;;;43.53;22.02;;;11.10;99.90;;;;;;5057658;28;20856;-81
2023/04/17 07:59:47;;;;;;;41.75;22.17;;;11.20;99.90;;;;;;5075298;28;20120;-81
2023/04/17 08:02:14;;;;;;;42.28;21.92;;;11.30;99.90;;;;;;5074712;28;20051;-81
2023/04/17 08:04:40;;;;;;;37.03;20.77;;;11.40;99.90;;;;;;5061303;28;20505;-81
2023/04/17 08:07:09;;;;;;;37.90;22.02;;;11.50;99.90;;;;;;5045748;28;20052;-81
2023/04/17 08:09:36;;;;;;;36.80;20.52;;;11.70;99.90;;;;;;5057561;28;20047;-79
2023/04/17 08:12:02;;;;;;;35.00;19.95;;;11.80;99.90;;;;;;5066434;28;20090;-81
2023/04/17 08:14:28;;;;;;;43.80;20.98;;;11.90;99.90;;;;;;5044189;28;20047;-80
2023/04/17 08:16:53;;;;;;;38.20;21.33;;;12.00;99.90;;;;;;5058051;28;20051;-81
2023/04/17 08:19:19;;;;;;;38.85;20.73;;;12.10;99.90;;;;;;5057823;28;20385;-85
2023/04/17 08:21:49;;;;;;;34.60;19.60;;;12.20;99.90;;;;;;5068655;28;20032;-80
2023/04/17 08:24:16;;;;;;;39.65;21.08;;;12.30;99.90;;;;;;5074169;28;20044;-80
2023/04/17 08:26:42;;;;;;;36.95;20.13;;;12.40;99.90;;;;;;5050811;28;20454;-81
2023/04/17 08:29:07;;;;;;;41.45;20.73;;;12.60;99.90;;;;;;5060914;28;20054;-81
2023/04/17 08:31:38;;;;;;;35.28;22.77;;;12.80;99.90;;;;;;5074540;28;20456;-80
2023/04/17 08:34:04;;;;;;;36.88;22.88;;;13.00;81.60;;;;;;5066641;28;20083;-80
2023/04/17 08:36:30;;;;;;;34.40;22.67;;;13.20;23.40;;;;;;5036950;28;20080;-81
2023/04/17 08:38:56;;;;;;;36.35;21.92;;;13.30;1.00;;;;;;5037528;28;20460;-81
2023/04/17 08:41:28;;;;;;;32.35;20.98;;;13.40;1.00;;;;;;5080539;28;20544;-87
2023/04/17 08:43:58;;;;;;;33.72;19.67;;;13.60;1.00;;;;;;5094969;28;20078;-80
2023/04/17 08:46:26;;;;;;;33.40;19.50;;;13.80;1.00;;;;;;5056199;28;20048;-82
2023/04/17 08:48:51;;;;;;;32.67;20.40;;;13.90;1.00;;;;;;5072364;28;20056;-81
2023/04/17 08:51:17;;;;;;;30.95;19.23;;;14.10;99.90;;;;;;5056993;28;20555;-80
2023/04/17 08:53:43;;;;;;;31.95;18.92;;;14.20;99.90;;;;;;5073778;28;20126;-81
2023/04/17 08:56:08;;;;;;;29.17;20.20;;;14.30;99.90;;;;;;5057598;28;20044;-81
2023/04/17 08:58:35;;;;;;;30.30;19.38;;;14.40;99.90;;;;;;5072716;28;20572;-80
2023/04/17 09:01:14;;;;;;;28.27;18.92;;;14.40;99.90;;;;;;5062976;28;20048;-80
2023/04/17 09:03:48;;;;;;;27.83;18.95;;;14.50;99.90;;;;;;5089077;28;20044;-80
2023/04/17 09:06:14;;;;;;;26.77;17.73;;;14.50;99.90;;;;;;5060507;28;20044;-83
2023/04/17 09:09:00;;;;;;;26.15;18.15;;;14.60;99.90;;;;;;5044011;28;20054;-80
2023/04/17 09:11:26;;;;;;;26.73;17.77;;;14.60;99.90;;;;;;5073706;28;20044;-85
2023/04/17 09:13:53;;;;;;;24.10;16.92;;;14.70;99.90;;;;;;5073664;28;20044;-80
2023/04/17 09:16:19;;;;;;;24.42;16.17;;;14.80;99.90;;;;;;5056526;28;20040;-80
2023/04/17 09:18:45;;;;;;;25.23;16.92;;;15.00;99.90;;;;;;5056284;28;20485;-80
2023/04/17 09:21:13;;;;;;;21.95;14.65;;;15.20;99.90;;;;;;5073005;28;20039;-81
2023/04/17 09:23:50;;;;;;;22.98;14.93;;;15.40;99.90;;;;;;5056430;28;20048;-81
2023/04/17 09:26:19;;;;;;;21.70;15.00;;;15.60;99.90;;;;;;5054622;28;20123;-80
2023/04/17 09:29:01;;;;;;;29.15;15.98;;;15.80;99.90;;;;;;5082536;28;20436;-80
2023/04/17 09:31:29;;;;;;;23.35;14.73;;;16.10;99.90;;;;;;5062372;28;20040;-80
2023/04/17 09:34:10;;;;;;;22.83;15.50;;;16.40;99.90;;;;;;5073303;28;20052;-80
2023/04/17 09:36:37;;;;;;;20.95;14.20;;;16.80;99.90;;;;;;5025635;28;20498;-81
2023/04/17 09:39:15;;;;;;;22.08;14.88;;;17.00;99.90;;;;;;5073366;28;20131;-79
2023/04/17 09:41:41;;;;;;;19.58;13.65;;;17.20;99.90;;;;;;5072648;28;20123;-81
2023/04/17 09:44:08;;;;;;;20.73;13.55;;;17.00;98.20;;;;;;5072251;28;20055;-81
2023/04/17 09:46:36;;;;;;;17.98;13.13;;;17.10;99.90;;;;;;5055848;28;20435;-80
2023/04/17 09:49:13;;;;;;;18.17;13.32;;;17.30;93.50;;;;;;5059955;28;20101;-80
2023/04/17 09:51:39;;;;;;;22.15;12.73;;;17.70;2.10;;;;;;5056057;28;20093;-81
2023/04/17 09:54:07;;;;;;;20.10;14.25;;;18.00;37.80;;;;;;5049708;28;20117;-80
2023/04/17 09:56:34;;;;;;;17.27;13.30;;;18.30;18.80;;;;;;5066458;28;20048;-86
2023/04/17 09:59:04;;;;;;;17.27;12.35;;;18.60;2.40;;;;;;5024319;28;20059;-80
2023/04/17 10:01:32;;;;;;;16.40;12.60;;;18.80;1.00;;;;;;5050327;28;20075;-80
2023/04/17 10:03:59;;;;;;;16.13;12.02;;;18.20;1.00;;;;;;5064039;28;20048;-80
2023/04/17 10:06:26;;;;;;;16.88;12.02;;;18.50;1.00;;;;;;5089069;28;20044;-80
2023/04/17 10:08:51;;;;;;;16.95;12.02;;;19.20;1.00;;;;;;5038829;28;20091;-81
2023/04/17 10:11:18;;;;;;;19.50;12.00;;;19.30;1.00;;;;;;5043288;28;20076;-80
2023/04/17 10:13:48;;;;;;;17.13;12.13;;;19.10;1.00;;;;;;5082350;28;20436;-80
2023/04/17 10:16:14;;;;;;;15.82;12.40;;;18.50;1.00;;;;;;5089471;28;20083;-80
2023/04/17 10:18:40;;;;;;;15.00;12.40;;;18.10;1.00;;;;;;5073987;28;20051;-80
2023/04/17 10:21:23;;;;;;;15.70;11.77;;;17.80;1.00;;;;;;5061899;28;20042;-81
2023/04/17 10:23:49;;;;;;;17.10;11.65;;;18.30;1.00;;;;;;5100597;28;20063;-81
2023/04/17 10:26:24;;;;;;;17.88;12.23;;;19.20;1.00;;;;;;5059909;28;20048;-80
2023/04/17 10:28:52;;;;;;;17.50;11.15;;;20.40;1.00;;;;;;5059295;28;20043;-81
2023/04/17 10:31:19;;;;;;;15.45;11.82;;;21.20;1.00;;;;;;5079986;28;20044;-80
2023/04/17 10:33:49;;;;;;;17.15;11.23;;;20.90;1.00;;;;;;5051285;28;20119;-80
2023/04/17 10:36:36;;;;;;;14.65;11.35;;;20.90;1.00;;;;;;5058471;28;20049;-80
2023/04/17 10:39:13;;;;;;;14.35;11.25;;;20.90;1.00;;;;;;5057976;28;20052;-80
2023/04/17 10:42:04;;;;;;;13.70;11.05;;;20.50;1.00;;;;;;5075374;28;20124;-84
2023/04/17 10:44:34;;;;;;;16.90;11.43;;;20.30;1.00;;;;;;5075816;28;20060;-80
2023/04/17 10:47:09;;;;;;;17.00;11.07;;;19.60;1.00;;;;;;5093090;28;20455;-81
2023/04/17 10:49:55;;;;;;;15.93;10.38;;;20.30;1.00;;;;;;5050668;28;20048;-81
2023/04/17 10:52:40;;;;;;;14.38;10.88;;;20.80;1.00;;;;;;5074540;28;20799;-81
2023/04/17 10:55:14;;;;;;;15.02;10.73;;;20.90;1.00;;;;;;5072552;28;20138;-81
2023/04/17 10:57:57;;;;;;;14.80;10.73;;;20.40;1.00;;;;;;5076243;28;20123;-85
2023/04/17 11:00:35;;;;;;;15.07;11.15;;;19.40;1.00;;;;;;5059403;28;20362;-81
2023/04/17 11:03:04;;;;;;;15.63;11.50;;;18.40;1.00;;;;;;5059332;28;20249;-80
2023/04/17 11:05:31;;;;;;;14.65;11.35;;;17.70;1.00;;;;;;5075861;28;20123;-81
2023/04/17 11:07:57;;;;;;;16.17;10.55;;;17.90;1.00;;;;;;5074289;28;20044;-80
2023/04/17 11:10:23;;;;;;;14.43;10.35;;;18.10;1.00;;;;;;5060684;28;20405;-81
2023/04/17 11:12:55;;;;;;;16.35;10.93;;;17.70;1.00;;;;;;5056881;28;20044;-81
2023/04/17 11:15:28;;;;;;;12.93;9.98;;;17.50;1.00;;;;;;5059497;28;20052;-81
2023/04/17 11:17:55;;;;;;;13.32;10.50;;;17.30;1.00;;;;;;5058131;28;20199;-81
2023/04/17 11:20:25;;;;;;;14.55;10.45;;;17.20;1.00;;;;;;5058993;28;20120;-81
2023/04/17 11:22:51;;;;;;;14.13;10.20;;;18.10;1.00;;;;;;5057593;28;20141;-81
2023/04/17 11:25:30;;;;;;;15.65;10.82;;;18.90;1.00;;;;;;5055597;28;20154;-82
2023/04/17 11:27:57;;;;;;;15.48;10.60;;;18.80;1.00;;;;;;5074712;28;20048;-80
2023/04/17 11:30:30;;;;;;;16.40;10.57;;;18.60;1.00;;;;;;5057312;28;20400;-85
2023/04/17 11:33:07;;;;;;;12.48;9.57;;;19.00;1.00;;;;;;5063458;28;20048;-82
2023/04/17 11:35:35;;;;;;;16.23;10.18;;;19.30;1.00;;;;;;5066045;28;20050;-81
2023/04/17 11:38:11;;;;;;;14.18;9.90;;;20.10;1.00;;;;;;5074489;28;20055;-81
2023/04/17 11:40:50;;;;;;;11.98;9.73;;;21.10;1.00;;;;;;5073911;28;20055;-80
2023/04/17 11:43:16;;;;;;;13.73;9.70;;;21.70;1.00;;;;;;5058337;28;20086;-81
2023/04/17 11:45:44;;;;;;;14.77;10.10;;;21.60;1.00;;;;;;5070732;28;20175;-81
2023/04/17 11:48:11;;;;;;;15.52;11.07;;;21.10;1.00;;;;;;5065876;28;20052;-81
2023/04/17 11:50:38;;;;;;;14.50;10.20;;;20.30;1.00;;;;;;5074848;28;20043;-81
2023/04/17 11:53:04;;;;;;;13.00;9.77;;;20.20;1.00;;;;;;5047088;28;20049;-81
2023/04/17 11:55:30;;;;;;;15.70;9.80;;;20.40;1.00;;;;;;5068777;28;20434;-81
2023/04/17 11:58:05;;;;;;;15.07;10.05;;;20.50;1.00;;;;;;5055512;28;20060;-83
2023/04/17 12:00:31;;;;;;;15.45;9.50;;;20.60;1.00;;;;;;5052662;28;20060;-82
2023/04/17 12:03:02;;;;;;;13.90;9.48;;;20.20;1.00;;;;;;5055185;28;20045;-80
2023/04/17 12:05:29;;;;;;;13.88;8.82;;;20.20;1.00;;;;;;5045445;28;20130;-80
2023/04/17 12:08:00;;;;;;;11.90;9.00;;;20.40;1.00;;;;;;5087846;28;20043;-81
2023/04/17 12:10:43;;;;;;;13.07;9.60;;;20.60;1.00;;;;;;5058120;28;20382;-82
2023/04/17 12:13:10;;;;;;;12.85;9.45;;;21.30;1.00;;;;;;5057255;28;20123;-82
2023/04/17 12:15:37;;;;;;;14.02;8.68;;;22.80;1.00;;;;;;5058394;28;20048;-82
2023/04/17 12:18:08;;;;;;;13.88;9.40;;;23.50;1.00;;;;;;5074215;28;20066;-81
2023/04/17 12:20:37;;;;;;;12.98;9.63;;;24.00;1.00;;;;;;5074492;28;20071;-81
2023/04/17 12:23:04;;;;;;;12.40;8.35;;;23.10;1.00;;;;;;5061197;28;20040;-81
2023/04/17 12:25:32;;;;;;;11.57;9.32;;;21.90;1.00;;;;;;5057927;28;20139;-81
2023/04/17 12:27:58;;;;;;;13.10;9.30;;;21.30;1.00;;;;;;5056994;28;20062;-81
2023/04/17 12:30:25;;;;;;;13.80;10.05;;;21.70;1.00;;;;;;5074968;28;20489;-84
2023/04/17 12:32:52;;;;;;;13.43;9.07;;;22.10;1.00;;;;;;5082346;28;20051;-89
2023/04/17 12:35:19;;;;;;;12.40;8.88;;;21.70;1.00;;;;;;5056122;28;20047;-81
2023/04/17 12:37:50;;;;;;;17.85;10.25;;;21.80;1.00;;;;;;5072159;28;20085;-80
2023/04/17 12:40:20;;;;;;;14.23;10.35;;;20.90;1.00;;;;;;5056048;28;20136;-83
2023/04/17 12:42:47;;;;;;;15.38;10.93;;;19.60;1.00;;;;;;5055435;28;20562;-82